Time;durP1;ratioP1;P1;durP2;ratioP2;P2;SDS_P1;SDS_P2;PMS_P1;PMS_P2;Temp;Humidity;BMP_temperature;BMP_pressure;BME280_temperature;BME280_humidity;BME280_pressure;Samples;Min_cycle;Max_cycle;Signal;HPM_P1;HPM_P2
2023/04/06 00:01:27;;;;;;;13.83;7.83;;;0.60;62.00;;;;;;5012826;28;21186;-57
2023/04/06 00:03:53;;;;;;;12.10;8.20;;;0.60;62.40;;;;;;5010289;28;20214;-55
2023/04/06 00:06:18;;;;;;;13.87;8.80;;;0.50;62.80;;;;;;5015251;28;20186;-54
2023/04/06 00:08:44;;;;;;;13.27;8.00;;;0.50;63.30;;;;;;5007071;28;20253;-56
2023/04/06 00:11:10;;;;;;;13.43;8.90;;;0.50;63.20;;;;;;5009448;28;20219;-57
2023/04/06 00:13:36;;;;;;;14.13;9.20;;;0.40;63.20;;;;;;5012622;28;20194;-58
2023/04/06 00:16:01;;;;;;;13.90;8.80;;;0.40;63.40;;;;;;5016642;28;20595;-56
2023/04/06 00:18:27;;;;;;;17.40;8.77;;;0.40;63.40;;;;;;5018074;28;20230;-55
2023/04/06 00:20:53;;;;;;;14.60;8.20;;;0.40;63.70;;;;;;5019311;28;20627;-57
2023/04/06 00:23:18;;;;;;;14.03;9.10;;;0.30;63.80;;;;;;5013910;28;20226;-55
2023/04/06 00:25:44;;;;;;;12.10;8.60;;;0.30;64.20;;;;;;5013036;28;20269;-55
2023/04/06 00:28:10;;;;;;;14.90;9.10;;;0.30;64.40;;;;;;5015839;28;20214;-54
2023/04/06 00:30:35;;;;;;;17.83;9.77;;;0.20;65.00;;;;;;5015853;28;20198;-54
2023/04/06 00:33:01;;;;;;;14.70;9.10;;;0.20;65.90;;;;;;5014992;28;20379;-55
2023/04/06 00:35:27;;;;;;;12.90;8.93;;;0.20;66.50;;;;;;5014491;28;20719;-55
2023/04/06 00:37:52;;;;;;;14.73;9.10;;;0.20;66.30;;;;;;5013759;28;20211;-54
2023/04/06 00:40:18;;;;;;;14.57;8.67;;;0.20;66.80;;;;;;5013317;28;20189;-55
2023/04/06 00:42:44;;;;;;;14.00;8.73;;;0.20;66.80;;;;;;5016224;28;20576;-57
2023/04/06 00:45:10;;;;;;;13.27;8.97;;;0.20;66.90;;;;;;5008765;28;20205;-55
2023/04/06 00:47:36;;;;;;;12.87;9.23;;;0.10;66.90;;;;;;5010177;28;20187;-53
2023/04/06 00:50:02;;;;;;;15.20;9.20;;;0.10;66.90;;;;;;5015706;28;20436;-56
2023/04/06 00:52:28;;;;;;;11.73;8.50;;;0.10;66.80;;;;;;5009417;28;20465;-56
2023/04/06 00:54:53;;;;;;;14.77;9.30;;;0.10;66.90;;;;;;5015829;28;21124;-56
2023/04/06 00:57:19;;;;;;;16.00;9.20;;;0.10;66.90;;;;;;5015502;28;20456;-56
2023/04/06 00:59:45;;;;;;;11.70;8.77;;;0.00;66.80;;;;;;5018325;28;20296;-56
2023/04/06 01:02:11;;;;;;;15.20;8.60;;;0.00;66.70;;;;;;5018686;28;20429;-55
2023/04/06 01:04:37;;;;;;;15.80;9.97;;;0.00;66.90;;;;;;5017308;28;20535;-55
2023/04/06 01:07:02;;;;;;;12.60;8.37;;;-0.10;67.10;;;;;;5016811;28;20180;-56
2023/04/06 01:09:31;;;;;;;13.90;8.90;;;-0.10;67.40;;;;;;5015135;28;20210;-55
2023/04/06 01:11:58;;;;;;;13.67;9.20;;;-0.10;67.90;;;;;;5016112;28;20250;-56
2023/04/06 01:14:25;;;;;;;11.27;7.67;;;-0.20;68.30;;;;;;5019456;28;20433;-55
2023/04/06 01:16:51;;;;;;;13.27;9.07;;;-0.20;68.20;;;;;;5017904;28;20418;-55
2023/04/06 01:19:17;;;;;;;11.90;9.10;;;-0.20;68.70;;;;;;5017765;28;20467;-55
2023/04/06 01:21:43;;;;;;;13.63;8.90;;;-0.20;68.70;;;;;;5015179;28;20429;-55
2023/04/06 01:24:09;;;;;;;14.10;8.80;;;-0.20;68.90;;;;;;5018385;28;20185;-56
2023/04/06 01:26:35;;;;;;;12.10;8.53;;;-0.20;69.40;;;;;;5012614;28;20193;-55
2023/04/06 01:29:02;;;;;;;13.30;9.00;;;-0.20;69.80;;;;;;5011192;28;20567;-55
2023/04/06 01:31:28;;;;;;;14.53;8.77;;;-0.30;69.80;;;;;;5010877;28;20475;-57
2023/04/06 01:33:54;;;;;;;16.97;9.60;;;-0.30;69.70;;;;;;5013811;28;21201;-53
2023/04/06 01:36:20;;;;;;;17.40;10.80;;;-0.30;70.00;;;;;;5013029;28;20440;-55
2023/04/06 01:38:46;;;;;;;17.37;10.50;;;-0.30;70.20;;;;;;5014084;28;20443;-56
2023/04/06 01:41:12;;;;;;;16.70;9.17;;;-0.30;70.30;;;;;;5009883;28;20452;-56
2023/04/06 01:43:37;;;;;;;15.40;9.30;;;-0.30;70.60;;;;;;5011258;28;20518;-56
2023/04/06 01:46:03;;;;;;;15.20;8.87;;;-0.40;70.60;;;;;;5015084;28;20300;-55
2023/04/06 01:48:29;;;;;;;14.33;9.03;;;-0.40;71.20;;;;;;5009864;28;20236;-55
2023/04/06 01:50:55;;;;;;;13.63;9.00;;;-0.40;72.40;;;;;;5012990;28;20493;-56
2023/04/06 01:53:21;;;;;;;12.33;8.60;;;-0.40;72.60;;;;;;5015387;28;20217;-56
2023/04/06 01:55:46;;;;;;;12.50;8.40;;;-0.50;72.40;;;;;;5014873;28;21011;-54
2023/04/06 01:58:12;;;;;;;16.83;9.33;;;-0.50;72.70;;;;;;5014888;28;20539;-54
2023/04/06 02:00:38;;;;;;;11.53;8.43;;;-0.50;72.70;;;;;;5014748;28;20174;-55
2023/04/06 02:03:04;;;;;;;14.03;8.67;;;-0.50;72.20;;;;;;5012545;28;20495;-55
2023/04/06 02:05:33;;;;;;;11.43;8.20;;;-0.50;72.90;;;;;;5009794;28;20571;-55
2023/04/06 02:07:58;;;;;;;15.67;9.37;;;-0.50;73.50;;;;;;5014365;28;20252;-54
2023/04/06 02:10:24;;;;;;;14.90;8.60;;;-0.50;72.70;;;;;;5015110;28;20442;-55
2023/04/06 02:12:50;;;;;;;26.47;8.73;;;-0.50;72.20;;;;;;5014712;28;20178;-54
2023/04/06 02:15:16;;;;;;;11.90;8.20;;;-0.60;72.20;;;;;;5014654;28;20177;-54
2023/04/06 02:17:42;;;;;;;13.90;9.37;;;-0.60;72.80;;;;;;5014593;28;20187;-54
2023/04/06 02:20:08;;;;;;;16.13;9.57;;;-0.60;73.00;;;;;;5017408;28;20458;-54
2023/04/06 02:22:35;;;;;;;13.90;9.10;;;-0.70;73.10;;;;;;5015488;28;22213;-53
2023/04/06 02:25:01;;;;;;;20.40;10.17;;;-0.70;73.60;;;;;;5017960;28;20431;-55
2023/04/06 02:27:27;;;;;;;13.83;9.63;;;-0.80;73.70;;;;;;5017510;28;20432;-53
2023/04/06 02:29:52;;;;;;;15.33;9.30;;;-0.80;74.10;;;;;;5015628;28;20206;-53
2023/04/06 02:32:18;;;;;;;12.93;8.40;;;-0.80;74.30;;;;;;5015752;28;20201;-53
2023/04/06 02:34:43;;;;;;;12.40;8.33;;;-0.90;74.90;;;;;;5018443;28;20204;-56
2023/04/06 02:37:09;;;;;;;14.47;8.87;;;-0.90;75.30;;;;;;5018513;28;20726;-56
2023/04/06 02:39:35;;;;;;;15.30;9.00;;;-0.90;75.90;;;;;;5015082;28;20192;-54
2023/04/06 02:42:01;;;;;;;11.47;8.10;;;-1.00;76.40;;;;;;5014142;28;20232;-54
2023/04/06 02:44:26;;;;;;;14.20;8.83;;;-1.00;76.40;;;;;;5016917;28;20185;-55
2023/04/06 02:46:52;;;;;;;15.30;9.83;;;-1.00;76.60;;;;;;5011607;28;20181;-54
2023/04/06 02:49:17;;;;;;;13.37;8.60;;;-1.00;77.60;;;;;;5011899;28;20236;-54
2023/04/06 02:51:43;;;;;;;14.97;9.13;;;-1.00;77.50;;;;;;5012850;28;20205;-56
2023/04/06 02:54:09;;;;;;;15.83;9.53;;;-1.00;77.70;;;;;;5015975;28;20177;-56
2023/04/06 02:56:35;;;;;;;12.17;8.27;;;-1.10;77.90;;;;;;5013667;28;20269;-56
2023/04/06 02:59:00;;;;;;;16.77;9.27;;;-1.10;78.50;;;;;;5023418;28;20189;-55
2023/04/06 03:01:26;;;;;;;16.27;9.60;;;-1.10;79.00;;;;;;5021089;28;20675;-58
2023/04/06 03:03:52;;;;;;;14.20;9.80;;;-1.10;78.30;;;;;;5019059;28;20348;-56
2023/04/06 03:06:17;;;;;;;14.70;9.40;;;-1.10;78.50;;;;;;5014924;28;21592;-56
2023/04/06 03:08:43;;;;;;;16.97;9.70;;;-1.10;79.10;;;;;;5013318;28;20293;-54
2023/04/06 03:11:09;;;;;;;13.20;8.30;;;-1.10;79.40;;;;;;5013552;28;20202;-57
2023/04/06 03:13:35;;;;;;;14.23;9.47;;;-1.10;79.40;;;;;;5010819;28;20174;-55
2023/04/06 03:16:01;;;;;;;14.00;8.57;;;-1.20;79.10;;;;;;5004114;28;20289;-56
2023/04/06 03:18:27;;;;;;;14.67;8.87;;;-1.20;79.70;;;;;;5007882;28;22389;-56
2023/04/06 03:20:55;;;;;;;12.30;8.17;;;-1.20;80.00;;;;;;5003191;28;20197;-55
2023/04/06 03:23:21;;;;;;;19.43;9.60;;;-1.20;80.00;;;;;;5008468;28;20202;-53
2023/04/06 03:25:46;;;;;;;16.53;10.40;;;-1.20;80.10;;;;;;5007087;28;20437;-55
2023/04/06 03:28:12;;;;;;;13.03;8.63;;;-1.30;80.20;;;;;;5004485;28;20494;-56
2023/04/06 03:30:38;;;;;;;18.13;9.43;;;-1.30;81.10;;;;;;5005791;28;20209;-55
2023/04/06 03:33:04;;;;;;;12.93;9.33;;;-1.30;82.10;;;;;;5006472;28;20182;-58
2023/04/06 03:35:30;;;;;;;18.07;9.43;;;-1.30;82.00;;;;;;5001243;28;20195;-55
2023/04/06 03:37:55;;;;;;;13.90;8.80;;;-1.30;81.80;;;;;;5003742;28;20456;-55
2023/04/06 03:40:21;;;;;;;16.53;9.60;;;-1.30;81.30;;;;;;5005636;28;20181;-55
2023/04/06 03:42:46;;;;;;;20.30;10.00;;;-1.40;81.90;;;;;;5002758;28;20308;-54
2023/04/06 03:45:15;;;;;;;16.03;9.53;;;-1.40;81.70;;;;;;5004480;28;20255;-56
2023/04/06 03:47:40;;;;;;;18.00;10.93;;;-1.40;81.30;;;;;;5002637;28;20599;-53
2023/04/06 03:50:06;;;;;;;18.07;10.00;;;-1.40;81.10;;;;;;5004885;28;20959;-57
2023/04/06 03:52:32;;;;;;;17.47;9.90;;;-1.40;81.20;;;;;;5008479;28;20240;-55
2023/04/06 03:54:57;;;;;;;21.43;10.40;;;-1.40;81.20;;;;;;5007681;28;21125;-54
2023/04/06 03:57:23;;;;;;;17.50;9.90;;;-1.50;81.70;;;;;;5008794;28;20186;-56
2023/04/06 03:59:49;;;;;;;17.83;9.87;;;-1.50;82.40;;;;;;5004274;28;20202;-54
2023/04/06 04:02:14;;;;;;;15.70;10.00;;;-1.50;82.30;;;;;;5008339;28;20870;-55
2023/04/06 04:04:40;;;;;;;18.50;10.13;;;-1.50;82.60;;;;;;5007666;28;20185;-53
2023/04/06 04:07:06;;;;;;;29.97;9.87;;;-1.60;83.70;;;;;;5015849;28;20185;-51
2023/04/06 04:09:31;;;;;;;15.93;10.20;;;-1.60;83.60;;;;;;5014697;28;20769;-59
2023/04/06 04:11:57;;;;;;;17.60;10.50;;;-1.60;83.20;;;;;;5014334;28;20609;-57
2023/04/06 04:14:23;;;;;;;16.33;9.47;;;-1.60;83.60;;;;;;5007906;28;20185;-58
2023/04/06 04:16:48;;;;;;;19.90;11.47;;;-1.60;83.10;;;;;;5017881;28;20377;-56
2023/04/06 04:19:14;;;;;;;15.10;10.60;;;-1.60;83.70;;;;;;5009631;28;20693;-58
2023/04/06 04:21:44;;;;;;;20.70;11.77;;;-1.60;83.30;;;;;;5013315;28;20789;-55
2023/04/06 04:24:10;;;;;;;15.13;9.80;;;-1.60;83.30;;;;;;5011512;28;20191;-57
2023/04/06 04:26:37;;;;;;;16.50;9.27;;;-1.60;83.50;;;;;;5015913;28;20567;-55
2023/04/06 04:29:02;;;;;;;14.70;10.00;;;-1.60;83.20;;;;;;5024846;28;20534;-54
2023/04/06 04:31:28;;;;;;;20.83;9.20;;;-1.60;83.10;;;;;;5014485;28;20546;-55
2023/04/06 04:33:53;;;;;;;17.60;9.90;;;-1.70;83.40;;;;;;5023506;28;20647;-53
2023/04/06 04:36:19;;;;;;;17.60;10.17;;;-1.70;85.00;;;;;;5012547;28;20228;-55
2023/04/06 04:38:45;;;;;;;17.13;9.87;;;-1.70;85.00;;;;;;5021575;28;20202;-55
2023/04/06 04:41:10;;;;;;;17.70;9.43;;;-1.70;85.30;;;;;;5013832;28;20177;-47
2023/04/06 04:43:36;;;;;;;16.97;9.67;;;-1.70;85.30;;;;;;5013659;28;20182;-56
2023/04/06 04:46:03;;;;;;;17.40;9.30;;;-1.70;84.40;;;;;;5014424;28;20213;-55
2023/04/06 04:48:29;;;;;;;16.27;10.00;;;-1.60;84.30;;;;;;5014420;28;20787;-57
2023/04/06 04:50:55;;;;;;;18.80;9.57;;;-1.70;84.70;;;;;;5018434;28;20462;-57
2023/04/06 04:53:20;;;;;;;14.60;10.10;;;-1.70;84.20;;;;;;5024951;28;20760;-56
2023/04/06 04:55:46;;;;;;;14.03;9.40;;;-1.70;83.90;;;;;;5022870;28;20792;-57
2023/04/06 04:58:16;;;;;;;14.30;9.10;;;-1.70;83.50;;;;;;5029519;28;20201;-55
2023/04/06 05:00:42;;;;;;;15.93;9.33;;;-1.70;83.30;;;;;;5018894;28;20182;-56
2023/04/06 05:03:08;;;;;;;17.30;9.63;;;-1.70;83.60;;;;;;5020002;28;20428;-56
2023/04/06 05:05:34;;;;;;;22.20;10.37;;;-1.70;84.00;;;;;;5022640;28;20482;-56
2023/04/06 05:08:01;;;;;;;15.57;10.20;;;-1.70;83.90;;;;;;5023388;28;20443;-54
2023/04/06 05:10:26;;;;;;;14.73;8.93;;;-1.70;84.20;;;;;;5021697;28;20433;-54
2023/04/06 05:12:52;;;;;;;14.93;10.37;;;-1.70;84.30;;;;;;5026695;28;20952;-54
2023/04/06 05:15:18;;;;;;;18.87;10.43;;;-1.70;84.70;;;;;;5023135;28;20251;-54
2023/04/06 05:17:43;;;;;;;15.50;9.50;;;-1.70;84.50;;;;;;5018901;28;20274;-55
2023/04/06 05:20:10;;;;;;;16.60;9.57;;;-1.70;83.70;;;;;;5026160;28;20196;-55
2023/04/06 05:22:35;;;;;;;19.53;11.67;;;-1.70;83.40;;;;;;5024283;28;20193;-54
2023/04/06 05:25:02;;;;;;;19.97;11.00;;;-1.70;84.70;;;;;;5026691;28;20507;-53
2023/04/06 05:27:28;;;;;;;16.53;10.90;;;-1.70;84.20;;;;;;5019478;28;20665;-55
2023/04/06 05:29:54;;;;;;;17.53;10.30;;;-1.70;84.70;;;;;;5026328;28;21010;-55
2023/04/06 05:32:21;;;;;;;19.70;11.30;;;-1.60;85.60;;;;;;5022405;28;20205;-55
2023/04/06 05:34:49;;;;;;;18.23;10.83;;;-1.70;84.30;;;;;;5029555;28;20423;-56
2023/04/06 05:37:15;;;;;;;18.10;10.77;;;-1.70;84.50;;;;;;5030414;28;20426;-56
2023/04/06 05:39:41;;;;;;;18.20;11.10;;;-1.60;84.90;;;;;;5023638;28;20507;-55
2023/04/06 05:42:06;;;;;;;19.73;10.83;;;-1.50;84.40;;;;;;5027803;28;20459;-56
2023/04/06 05:44:32;;;;;;;14.50;9.60;;;-1.50;82.90;;;;;;5029704;28;20182;-54
2023/04/06 05:46:58;;;;;;;19.60;11.40;;;-1.40;82.30;;;;;;5017369;28;20224;-55
2023/04/06 05:49:23;;;;;;;16.00;10.40;;;-1.40;81.40;;;;;;5028760;28;20202;-54
2023/04/06 05:51:49;;;;;;;17.53;10.47;;;-1.30;79.90;;;;;;5025875;28;20236;-55
2023/04/06 05:54:15;;;;;;;19.77;11.13;;;-1.30;80.40;;;;;;5019861;28;20205;-57
2023/04/06 05:56:41;;;;;;;18.40;10.60;;;-1.20;80.90;;;;;;5022702;28;20240;-53
2023/04/06 05:59:06;;;;;;;15.80;9.77;;;-1.10;81.20;;;;;;5028990;28;20738;-53
2023/04/06 06:01:34;;;;;;;17.60;10.80;;;-1.10;80.60;;;;;;5027370;28;20276;-54
2023/04/06 06:04:03;;;;;;;21.20;11.30;;;-1.00;79.30;;;;;;5024419;28;20581;-56
2023/04/06 06:06:32;;;;;;;16.07;10.67;;;-0.90;80.60;;;;;;5028349;28;20433;-54
2023/04/06 06:09:01;;;;;;;17.10;10.33;;;-0.80;79.80;;;;;;5026673;28;20963;-54
2023/04/06 06:11:27;;;;;;;16.83;9.50;;;-0.80;77.60;;;;;;5017192;28;20460;-55
2023/04/06 06:13:52;;;;;;;18.87;10.93;;;-0.70;76.70;;;;;;5029019;28;20438;-54
2023/04/06 06:16:19;;;;;;;16.17;10.80;;;-0.60;75.00;;;;;;5029280;28;20951;-56
2023/04/06 06:18:45;;;;;;;18.47;10.90;;;-0.60;75.80;;;;;;5026194;28;20204;-54
2023/04/06 06:21:14;;;;;;;22.30;12.53;;;-0.50;76.80;;;;;;5026573;28;20426;-54
2023/04/06 06:23:41;;;;;;;19.23;12.10;;;-0.50;77.70;;;;;;5026023;28;20193;-54
2023/04/06 06:26:07;;;;;;;19.40;10.93;;;-0.40;76.60;;;;;;5024608;28;20952;-55
2023/04/06 06:28:32;;;;;;;23.83;12.50;;;-0.30;76.30;;;;;;5025429;28;20449;-55
2023/04/06 06:30:58;;;;;;;17.23;10.87;;;-0.30;76.50;;;;;;5028463;28;20624;-53
2023/04/06 06:33:25;;;;;;;21.90;11.60;;;-0.20;77.20;;;;;;5026176;28;20827;-55
2023/04/06 06:35:51;;;;;;;20.43;11.90;;;-0.10;77.20;;;;;;5022118;28;20178;-55
2023/04/06 06:38:17;;;;;;;21.63;12.20;;;0.00;76.30;;;;;;5020914;28;20448;-55
2023/04/06 06:40:43;;;;;;;16.47;10.90;;;0.10;75.90;;;;;;5022594;28;20793;-55
2023/04/06 06:43:08;;;;;;;17.70;9.93;;;0.20;74.60;;;;;;5027127;28;20452;-53
2023/04/06 06:45:34;;;;;;;18.83;11.33;;;0.30;74.10;;;;;;5024984;28;20170;-56
2023/04/06 06:48:00;;;;;;;23.40;11.10;;;0.30;73.30;;;;;;5027619;28;20617;-55
2023/04/06 06:50:26;;;;;;;18.30;10.93;;;0.40;73.50;;;;;;5025758;28;20992;-54
2023/04/06 06:52:52;;;;;;;22.30;11.60;;;0.50;73.10;;;;;;5029385;28;20254;-54
2023/04/06 06:55:19;;;;;;;21.43;12.07;;;0.50;72.70;;;;;;5019008;28;20432;-54
2023/04/06 06:57:46;;;;;;;18.90;11.60;;;0.60;73.20;;;;;;5019962;28;20243;-54
2023/04/06 07:00:14;;;;;;;22.43;11.63;;;0.70;72.80;;;;;;5023383;28;20433;-54
2023/04/06 07:02:40;;;;;;;20.63;11.60;;;0.80;72.70;;;;;;5024456;28;20433;-54
2023/04/06 07:05:06;;;;;;;18.50;11.13;;;0.80;72.00;;;;;;5018363;28;20448;-56
2023/04/06 07:07:33;;;;;;;18.90;11.67;;;0.90;71.70;;;;;;5025719;28;20437;-53
2023/04/06 07:09:59;;;;;;;17.87;10.87;;;1.00;70.70;;;;;;5017460;28;20467;-55
2023/04/06 07:12:25;;;;;;;16.60;10.53;;;1.10;70.60;;;;;;5021225;28;20910;-54
2023/04/06 07:14:51;;;;;;;23.70;11.67;;;1.10;69.20;;;;;;5026093;28;20456;-57
2023/04/06 07:17:16;;;;;;;15.57;9.87;;;1.20;68.00;;;;;;5016920;28;20209;-54
2023/04/06 07:19:42;;;;;;;16.73;10.57;;;1.20;67.60;;;;;;5014069;28;20216;-54
2023/04/06 07:22:08;;;;;;;28.87;11.30;;;1.30;67.10;;;;;;5015749;28;20200;-55
2023/04/06 07:24:34;;;;;;;15.90;10.23;;;1.30;66.00;;;;;;5020498;28;20666;-55
2023/04/06 07:27:02;;;;;;;15.50;10.33;;;1.40;66.10;;;;;;5027450;28;20836;-54
2023/04/06 07:29:29;;;;;;;22.60;10.60;;;1.50;66.60;;;;;;5025473;28;20558;-54
2023/04/06 07:31:55;;;;;;;18.83;10.93;;;1.60;66.00;;;;;;5026374;28;21037;-53
2023/04/06 07:34:21;;;;;;;19.50;11.70;;;1.70;65.30;;;;;;5026430;28;20480;-53
2023/04/06 07:36:46;;;;;;;14.50;10.47;;;1.80;65.10;;;;;;5027921;28;20427;-53
2023/04/06 07:39:12;;;;;;;16.50;10.70;;;1.90;65.00;;;;;;5027789;28;20815;-54
2023/04/06 07:41:38;;;;;;;14.30;10.77;;;2.00;65.40;;;;;;5023044;28;20194;-53
2023/04/06 07:44:04;;;;;;;13.73;10.93;;;2.20;65.80;;;;;;5028854;28;20175;-55
2023/04/06 07:46:30;;;;;;;16.43;11.00;;;2.30;65.90;;;;;;5028151;28;20186;-55
2023/04/06 07:48:57;;;;;;;20.43;11.37;;;2.40;65.60;;;;;;5028450;28;20809;-55
2023/04/06 07:51:23;;;;;;;15.77;10.17;;;2.50;65.90;;;;;;5028441;28;20462;-53
2023/04/06 07:53:50;;;;;;;19.97;11.97;;;2.60;64.80;;;;;;5026964;28;20530;-54
2023/04/06 07:56:16;;;;;;;16.00;11.17;;;2.70;64.70;;;;;;5029354;28;20168;-55
2023/04/06 07:58:41;;;;;;;16.97;10.77;;;2.70;63.40;;;;;;5027283;28;20457;-53
2023/04/06 08:01:07;;;;;;;18.60;11.37;;;2.80;62.60;;;;;;5028230;28;20167;-54
2023/04/06 08:03:36;;;;;;;18.23;11.30;;;3.00;62.60;;;;;;5027779;28;20726;-54
2023/04/06 08:06:02;;;;;;;18.90;10.93;;;3.10;62.20;;;;;;5031696;28;20163;-55
2023/04/06 08:08:28;;;;;;;19.53;12.67;;;3.30;62.10;;;;;;5028694;28;20469;-56
2023/04/06 08:10:54;;;;;;;19.53;11.90;;;3.40;61.80;;;;;;5029210;28;20434;-55
2023/04/06 08:13:19;;;;;;;18.47;12.20;;;3.60;61.80;;;;;;5029661;28;20174;-54
2023/04/06 08:15:45;;;;;;;21.30;11.60;;;3.70;61.40;;;;;;5029431;28;20704;-54
2023/04/06 08:18:11;;;;;;;22.30;12.00;;;3.90;60.90;;;;;;5031474;28;20450;-56
2023/04/06 08:20:37;;;;;;;21.33;11.90;;;4.10;60.20;;;;;;5029786;28;20453;-55
2023/04/06 08:23:03;;;;;;;21.67;12.27;;;4.30;59.50;;;;;;5027048;28;20997;-56
2023/04/06 08:25:29;;;;;;;18.37;11.40;;;4.40;59.20;;;;;;5030314;28;20172;-55
2023/04/06 08:27:55;;;;;;;22.53;11.47;;;4.60;58.60;;;;;;5026604;28;20210;-54
2023/04/06 08:30:21;;;;;;;22.13;11.03;;;4.80;58.60;;;;;;5028045;28;20962;-55
2023/04/06 08:32:47;;;;;;;27.30;10.33;;;5.00;57.50;;;;;;5029353;28;20454;-55
2023/04/06 08:35:13;;;;;;;18.73;10.17;;;5.10;56.20;;;;;;5029133;28;20226;-54
2023/04/06 08:37:39;;;;;;;19.50;11.17;;;5.30;55.50;;;;;;5026940;28;20578;-55
2023/04/06 08:40:05;;;;;;;15.73;9.30;;;5.50;54.30;;;;;;5010875;28;20455;-55
2023/04/06 08:42:43;;;;;;;16.90;9.10;;;5.60;52.80;;;;;;5019575;28;20190;-55
2023/04/06 08:45:09;;;;;;;12.30;8.50;;;5.80;51.90;;;;;;5021180;28;20819;-55
2023/04/06 08:47:36;;;;;;;11.53;7.70;;;6.00;51.50;;;;;;5019150;28;20749;-56
2023/04/06 08:50:07;;;;;;;13.67;8.43;;;6.10;50.10;;;;;;5021715;28;20458;-58
2023/04/06 08:52:33;;;;;;;14.00;8.60;;;6.30;49.60;;;;;;5018126;28;20458;-58
2023/04/06 08:55:00;;;;;;;12.50;8.00;;;6.50;49.40;;;;;;5023385;28;20431;-58
2023/04/06 08:57:26;;;;;;;24.33;7.87;;;6.70;48.80;;;;;;5014489;28;20430;-58
2023/04/06 08:59:53;;;;;;;11.27;7.50;;;6.80;48.80;;;;;;5023673;28;20471;-58
2023/04/06 09:02:20;;;;;;;13.13;7.57;;;7.00;48.70;;;;;;5026473;28;20441;-58
2023/04/06 09:04:48;;;;;;;9.73;7.13;;;7.20;47.30;;;;;;5024097;28;20438;-58
2023/04/06 09:07:15;;;;;;;17.50;7.83;;;7.30;47.30;;;;;;5019074;28;20422;-58
2023/04/06 09:09:47;;;;;;;13.30;7.00;;;7.40;46.40;;;;;;5020728;28;20469;-58
2023/04/06 09:12:29;;;;;;;8.63;6.50;;;7.60;46.70;;;;;;5023091;28;20508;-58
2023/04/06 09:14:55;;;;;;;11.73;7.27;;;7.80;46.50;;;;;;5018887;28;20950;-57
2023/04/06 09:17:29;;;;;;;11.40;6.60;;;7.90;45.60;;;;;;5023790;28;20423;-58
2023/04/06 09:19:56;;;;;;;13.03;7.10;;;8.00;45.50;;;;;;5023774;28;20525;-59
2023/04/06 09:22:22;;;;;;;8.37;6.80;;;8.10;43.80;;;;;;5020175;28;20519;-58
2023/04/06 09:24:50;;;;;;;10.27;7.03;;;8.10;41.80;;;;;;5023174;28;20438;-60
2023/04/06 09:27:16;;;;;;;14.90;7.03;;;8.10;42.60;;;;;;5019289;28;20488;-58
2023/04/06 09:29:43;;;;;;;8.73;6.47;;;8.10;43.60;;;;;;5023309;28;20917;-58
2023/04/06 09:32:16;;;;;;;9.70;6.70;;;8.30;43.60;;;;;;5023516;28;20515;-56
2023/04/06 09:34:42;;;;;;;10.13;6.60;;;8.40;43.90;;;;;;5021184;28;20438;-58
2023/04/06 09:37:18;;;;;;;10.27;6.80;;;8.60;43.10;;;;;;5023791;28;20487;-59
2023/04/06 09:39:45;;;;;;;11.70;7.47;;;8.70;42.00;;;;;;5021181;28;20196;-58
2023/04/06 09:42:23;;;;;;;9.90;7.50;;;8.80;42.30;;;;;;5022455;28;20430;-58
2023/04/06 09:44:49;;;;;;;9.53;6.57;;;8.90;42.50;;;;;;5023899;28;20458;-58
2023/04/06 09:47:16;;;;;;;11.63;7.30;;;9.10;42.70;;;;;;5025012;28;20480;-59
2023/04/06 09:49:44;;;;;;;13.20;7.57;;;9.20;41.00;;;;;;5020607;28;20458;-59
2023/04/06 09:52:12;;;;;;;12.83;7.60;;;9.20;40.10;;;;;;5021648;28;20458;-58
2023/04/06 09:54:38;;;;;;;12.70;8.20;;;9.10;39.40;;;;;;5020690;28;20453;-59
2023/04/06 09:57:08;;;;;;;11.80;7.37;;;9.00;39.10;;;;;;5022314;28;20442;-56
2023/04/06 09:59:53;;;;;;;12.90;7.83;;;9.00;40.50;;;;;;5023337;28;20223;-60
2023/04/06 10:02:26;;;;;;;10.37;6.70;;;9.10;40.70;;;;;;5021150;28;20422;-59
2023/04/06 10:05:07;;;;;;;10.43;6.40;;;9.30;40.50;;;;;;5022974;28;20493;-59
2023/04/06 10:07:33;;;;;;;11.27;7.00;;;9.50;40.10;;;;;;5019996;28;20429;-57
2023/04/06 10:10:00;;;;;;;12.53;7.47;;;9.60;40.50;;;;;;5021349;28;21188;-59
2023/04/06 10:12:26;;;;;;;12.47;7.07;;;9.80;39.50;;;;;;5022072;28;20443;-59
2023/04/06 10:14:53;;;;;;;13.23;7.50;;;9.80;38.20;;;;;;5022589;28;20442;-58
2023/04/06 10:17:18;;;;;;;9.97;6.43;;;9.80;38.00;;;;;;5021104;28;20172;-59
2023/04/06 10:19:51;;;;;;;9.87;6.83;;;9.80;39.00;;;;;;5012143;28;20480;-59
2023/04/06 10:22:26;;;;;;;15.80;7.90;;;9.90;39.70;;;;;;5018403;28;20571;-58
2023/04/06 10:24:52;;;;;;;9.57;6.70;;;10.10;39.00;;;;;;5020368;28;20434;-58
2023/04/06 10:27:28;;;;;;;9.03;6.60;;;10.30;38.60;;;;;;5019156;28;20426;-58
2023/04/06 10:29:54;;;;;;;11.03;7.33;;;10.50;39.20;;;;;;5020418;28;20294;-59
2023/04/06 10:32:20;;;;;;;11.37;6.83;;;10.50;36.70;;;;;;5020229;28;21063;-57
2023/04/06 10:34:45;;;;;;;10.53;7.70;;;10.50;37.00;;;;;;5017235;28;20555;-57
2023/04/06 10:37:13;;;;;;;10.97;7.20;;;10.60;37.30;;;;;;5021923;28;20183;-55
2023/04/06 10:39:58;;;;;;;10.87;6.90;;;10.60;37.20;;;;;;5015366;28;20188;-56
2023/04/06 10:42:38;;;;;;;11.80;7.30;;;10.70;36.90;;;;;;5022454;28;20441;-55
2023/04/06 10:45:18;;;;;;;11.67;7.20;;;10.70;35.60;;;;;;5016581;28;21330;-56
2023/04/06 10:47:44;;;;;;;9.90;6.83;;;10.80;37.00;;;;;;5017221;28;20521;-56
2023/04/06 10:50:14;;;;;;;10.93;6.60;;;10.90;37.40;;;;;;5019728;28;20505;-56
2023/04/06 10:52:40;;;;;;;14.07;6.67;;;11.10;38.00;;;;;;5018817;28;20715;-55
2023/04/06 10:55:08;;;;;;;9.50;7.00;;;11.30;37.00;;;;;;5020635;28;20434;-57
2023/04/06 10:57:36;;;;;;;10.10;7.37;;;11.30;34.20;;;;;;5020662;28;20179;-58
2023/04/06 11:00:03;;;;;;;11.50;7.40;;;11.30;35.70;;;;;;5021446;28;20524;-57
2023/04/06 11:02:29;;;;;;;7.73;5.90;;;11.40;35.00;;;;;;5022973;28;20795;-57
2023/04/06 11:04:58;;;;;;;8.37;6.03;;;11.40;33.60;;;;;;5022823;28;20494;-56
2023/04/06 11:07:26;;;;;;;11.47;6.90;;;11.50;34.00;;;;;;5018570;28;20631;-58
2023/04/06 11:09:53;;;;;;;6.70;5.50;;;11.50;31.50;;;;;;5020289;28;20454;-57
2023/04/06 11:12:26;;;;;;;7.50;5.43;;;11.50;31.10;;;;;;5020263;28;20462;-59
2023/04/06 11:15:06;;;;;;;9.17;6.97;;;11.60;33.10;;;;;;5020395;28;20525;-55
2023/04/06 11:17:36;;;;;;;10.90;7.60;;;11.60;31.60;;;;;;5018974;28;20430;-57
2023/04/06 11:20:04;;;;;;;12.90;6.70;;;11.80;33.70;;;;;;5020900;28;20450;-57
2023/04/06 11:22:31;;;;;;;8.73;6.70;;;11.90;34.50;;;;;;5021713;28;20443;-56
2023/04/06 11:25:09;;;;;;;9.10;6.30;;;12.10;34.70;;;;;;5022241;28;20469;-56
2023/04/06 11:27:35;;;;;;;8.33;6.37;;;12.30;32.60;;;;;;5021347;28;20812;-56
2023/04/06 11:30:02;;;;;;;10.63;6.73;;;12.40;32.40;;;;;;5022094;28;20450;-56
2023/04/06 11:32:28;;;;;;;9.07;7.27;;;12.50;32.40;;;;;;5020858;28;20502;-56
2023/04/06 11:34:53;;;;;;;9.97;7.13;;;12.50;31.40;;;;;;5023045;28;21320;-55
2023/04/06 11:37:19;;;;;;;12.23;7.20;;;12.60;31.10;;;;;;5012873;28;20574;-57
2023/04/06 11:39:50;;;;;;;8.40;5.70;;;12.70;32.40;;;;;;5020146;28;20282;-58
2023/04/06 11:42:26;;;;;;;9.87;6.50;;;12.90;33.30;;;;;;5021930;28;20172;-57
2023/04/06 11:44:55;;;;;;;10.63;6.83;;;13.00;31.70;;;;;;5021182;28;20407;-56
2023/04/06 11:47:32;;;;;;;10.93;6.50;;;13.10;30.40;;;;;;5018188;28;20426;-56
2023/04/06 11:50:07;;;;;;;9.60;6.60;;;13.10;30.90;;;;;;5017853;28;20450;-57
2023/04/06 11:52:33;;;;;;;9.50;6.70;;;13.10;31.10;;;;;;5016414;28;20457;-57
2023/04/06 11:55:09;;;;;;;8.83;6.73;;;13.20;31.40;;;;;;5017797;28;20430;-55
2023/04/06 11:57:35;;;;;;;9.10;6.67;;;13.20;30.70;;;;;;5021972;28;20183;-58
2023/04/06 12:00:01;;;;;;;8.93;6.87;;;13.30;32.00;;;;;;5020353;28;21180;-55
2023/04/06 12:02:26;;;;;;;8.30;7.27;;;13.40;32.40;;;;;;5016023;28;20233;-55
2023/04/06 12:04:52;;;;;;;8.23;6.40;;;13.30;29.50;;;;;;5018040;28;20275;-55
2023/04/06 12:07:18;;;;;;;8.00;6.00;;;13.20;29.90;;;;;;5017602;28;20664;-57
2023/04/06 12:09:43;;;;;;;7.60;6.07;;;13.10;29.60;;;;;;5018099;28;20211;-54
2023/04/06 12:12:09;;;;;;;7.67;6.20;;;13.20;31.00;;;;;;5004923;28;20210;-56
2023/04/06 12:14:35;;;;;;;7.93;6.80;;;13.40;30.60;;;;;;5014641;28;20180;-57
2023/04/06 12:17:00;;;;;;;11.40;7.50;;;13.60;30.00;;;;;;5011711;28;20169;-55
2023/04/06 12:19:26;;;;;;;9.30;6.33;;;13.80;31.10;;;;;;5017499;28;20204;-56
2023/04/06 12:21:53;;;;;;;7.20;6.03;;;13.90;29.30;;;;;;5017044;28;20180;-57
2023/04/06 12:24:19;;;;;;;10.10;7.37;;;13.70;29.10;;;;;;5010989;28;20199;-55
2023/04/06 12:26:45;;;;;;;9.97;6.80;;;13.70;30.30;;;;;;5015050;28;20423;-55
2023/04/06 12:29:12;;;;;;;8.53;6.63;;;13.90;31.30;;;;;;5015439;28;20204;-58
2023/04/06 12:31:40;;;;;;;9.37;6.90;;;14.10;30.00;;;;;;5016197;28;20211;-57
2023/04/06 12:34:06;;;;;;;8.33;6.80;;;14.20;30.80;;;;;;5020387;28;20473;-55
2023/04/06 12:36:33;;;;;;;9.30;6.83;;;14.30;31.00;;;;;;5021268;28;20454;-56